Time;durP1;ratioP1;P1;durP2;ratioP2;P2;SDS_P1;SDS_P2;PMS_P1;PMS_P2;Temp;Humidity;BMP_temperature;BMP_pressure;BME280_temperature;BME280_humidity;BME280_pressure;Samples;Min_cycle;Max_cycle;Signal;HPM_P1;HPM_P2
2023/01/09 00:01:06;;;;;;;62.10;31.60;;;;;;;5.20;100.00;97884.12;135801;1259;23144;-61
2023/01/09 00:04:09;;;;;;;63.40;31.60;;;;;;;5.19;100.00;97874.45;135783;1254;22628;-61
2023/01/09 00:07:11;;;;;;;61.50;29.40;;;;;;;5.26;100.00;97868.05;135734;1259;22619;-60
2023/01/09 00:10:14;;;;;;;61.30;29.10;;;;;;;5.23;100.00;97865.08;135812;1277;24234;-60
2023/01/09 00:13:18;;;;;;;58.50;28.40;;;;;;;5.25;100.00;97862.55;135771;1278;25413;-59
2023/01/09 00:16:20;;;;;;;62.00;29.20;;;;;;;5.33;100.00;97856.91;135743;1259;22532;-60
2023/01/09 00:19:22;;;;;;;57.50;28.40;;;;;;;5.43;100.00;97855.46;135745;1278;22522;-59
2023/01/09 00:22:25;;;;;;;57.40;28.50;;;;;;;5.53;100.00;97857.52;135802;1259;22544;-61
2023/01/09 00:25:27;;;;;;;59.30;28.90;;;;;;;5.58;100.00;97851.73;135799;1259;22536;-60
2023/01/09 00:28:30;;;;;;;58.70;28.80;;;;;;;5.69;100.00;97847.63;135776;1277;22580;-62
2023/01/09 00:31:32;;;;;;;61.80;29.60;;;;;;;5.72;100.00;97849.02;135792;1277;22592;-61
2023/01/09 00:34:36;;;;;;;58.50;29.10;;;;;;;5.76;100.00;97841.86;135757;1259;22637;-60
2023/01/09 00:37:38;;;;;;;59.90;28.80;;;;;;;5.77;100.00;97844.74;135708;1278;24189;-60
2023/01/09 00:40:41;;;;;;;56.40;28.70;;;;;;;5.78;100.00;97850.25;135785;1259;22724;-62
2023/01/09 00:43:43;;;;;;;56.10;27.40;;;;;;;5.76;100.00;97849.14;135773;1259;22559;-60
2023/01/09 00:46:46;;;;;;;61.30;28.90;;;;;;;5.78;100.00;97839.64;135756;1278;24298;-60
2023/01/09 00:49:48;;;;;;;56.10;27.00;;;;;;;5.71;100.00;97840.91;135736;1259;22547;-63
2023/01/09 00:52:50;;;;;;;60.10;27.60;;;;;;;5.73;100.00;97837.70;135739;1264;22542;-61
2023/01/09 00:55:53;;;;;;;57.50;28.60;;;;;;;5.73;100.00;97835.23;135797;1277;22590;-60
2023/01/09 00:58:55;;;;;;;57.40;28.00;;;;;;;5.77;100.00;97839.72;135761;1275;22564;-61
2023/01/09 01:01:58;;;;;;;59.50;28.80;;;;;;;5.74;100.00;97838.15;135804;1264;22544;-60
2023/01/09 01:08:20;;;;;;;54.20;26.90;;;;;;;5.82;100.00;97832.81;135798;1277;22562;-62
2023/01/09 01:11:22;;;;;;;54.60;26.50;;;;;;;5.84;100.00;97828.58;135747;1278;25816;-60
2023/01/09 01:14:25;;;;;;;52.60;25.60;;;;;;;5.82;100.00;97828.84;135783;1278;22535;-60
2023/01/09 01:17:27;;;;;;;52.50;25.70;;;;;;;5.82;100.00;97835.98;135736;1278;22532;-60
2023/01/09 01:20:30;;;;;;;56.60;27.50;;;;;;;5.84;100.00;97826.80;135773;1259;22579;-60
2023/01/09 01:23:32;;;;;;;61.20;28.20;;;;;;;5.89;100.00;97818.56;135717;1278;22548;-61
2023/01/09 01:26:34;;;;;;;60.50;28.00;;;;;;;5.88;100.00;97814.61;135775;1278;22523;-60
2023/01/09 01:29:37;;;;;;;56.80;28.00;;;;;;;5.92;100.00;97815.06;135763;1275;22531;-60
2023/01/09 01:32:39;;;;;;;60.50;29.30;;;;;;;5.84;100.00;97812.77;135764;1278;22559;-60
2023/01/09 01:35:42;;;;;;;;;;;;;;;5.59;100.00;97805.32;135807;1278;22514;-60
2023/01/09 01:38:45;;;;;;;58.70;28.10;;;;;;;5.68;100.00;97802.05;135766;1277;22529;-61
2023/01/09 01:41:48;;;;;;;53.90;27.20;;;;;;;5.68;100.00;97810.74;135652;1278;22550;-59
2023/01/09 01:44:50;;;;;;;56.70;27.50;;;;;;;5.73;100.00;97804.73;135688;1277;22540;-59
2023/01/09 01:47:52;;;;;;;55.30;27.00;;;;;;;5.83;100.00;97807.62;135672;1278;22534;-58
2023/01/09 01:50:55;;;;;;;59.50;28.60;;;;;;;5.88;100.00;97801.80;135775;1278;22533;-63
2023/01/09 01:53:57;;;;;;;58.60;28.60;;;;;;;5.90;100.00;97798.56;135754;1278;22543;-60
2023/01/09 01:57:01;;;;;;;60.90;28.50;;;;;;;5.86;100.00;97794.27;135762;1268;22588;-64
2023/01/09 02:00:03;;;;;;;56.20;27.80;;;;;;;5.85;100.00;97800.90;135739;1277;22548;-61
2023/01/09 02:03:06;;;;;;;56.10;27.20;;;;;;;5.94;100.00;97795.88;135765;1259;22642;-59
2023/01/09 02:06:08;;;;;;;56.60;26.90;;;;;;;5.83;100.00;97788.51;135742;1275;22542;-60
2023/01/09 02:09:12;;;;;;;55.60;27.00;;;;;;;5.81;100.00;97776.50;135769;1265;22646;-61
2023/01/09 02:12:14;;;;;;;54.90;26.80;;;;;;;5.87;100.00;97769.75;135738;1277;25342;-60
2023/01/09 02:15:16;;;;;;;57.30;26.90;;;;;;;5.74;100.00;97778.80;135706;1278;22825;-59
2023/01/09 02:18:19;;;;;;;59.70;28.30;;;;;;;5.76;100.00;97774.20;135738;1277;22531;-61
2023/01/09 02:21:21;;;;;;;52.80;26.60;;;;;;;5.82;100.00;97778.36;135702;1277;22604;-61
2023/01/09 02:24:24;;;;;;;54.40;27.40;;;;;;;5.85;100.00;97775.25;135731;1277;22537;-59
2023/01/09 02:27:26;;;;;;;61.00;29.10;;;;;;;5.94;100.00;97763.11;135782;1277;22543;-61
2023/01/09 02:30:28;;;;;;;62.90;29.90;;;;;;;5.98;100.00;97763.55;135720;1278;22664;-61
2023/01/09 02:33:31;;;;;;;59.70;27.80;;;;;;;5.93;100.00;97774.77;135752;1277;25418;-60
2023/01/09 02:36:33;;;;;;;57.10;27.80;;;;;;;5.95;100.00;97778.45;135730;1278;22533;-60
2023/01/09 02:39:36;;;;;;;55.00;27.80;;;;;;;5.88;100.00;97772.45;135725;1259;22537;-60
2023/01/09 02:42:38;;;;;;;56.90;26.90;;;;;;;5.95;100.00;97771.36;135726;1278;25324;-59
2023/01/09 02:45:40;;;;;;;53.10;26.20;;;;;;;5.98;100.00;97777.44;135749;1277;22540;-62
2023/01/09 02:48:43;;;;;;;58.60;28.10;;;;;;;5.91;100.00;97775.23;135756;1278;22571;-60
2023/01/09 02:51:45;;;;;;;58.10;28.70;;;;;;;5.90;100.00;97770.96;135691;1278;22673;-59
2023/01/09 02:54:47;;;;;;;56.80;28.40;;;;;;;5.89;100.00;97763.72;135747;1259;22571;-60
2023/01/09 02:57:50;;;;;;;58.20;27.80;;;;;;;5.87;100.00;97758.29;135748;1278;22533;-61
2023/01/09 03:00:52;;;;;;;54.90;27.10;;;;;;;5.85;100.00;97763.09;135701;1264;22546;-62
2023/01/09 03:03:55;;;;;;;58.10;29.10;;;;;;;5.91;100.00;97762.42;135684;1256;24210;-60
2023/01/09 03:06:57;;;;;;;50.10;25.40;;;;;;;5.89;100.00;97759.58;135713;1259;22481;-63
2023/01/09 03:09:59;;;;;;;52.90;27.20;;;;;;;6.12;100.00;97764.48;135745;1277;24086;-60
2023/01/09 03:13:02;;;;;;;53.00;25.90;;;;;;;6.12;100.00;97760.34;135690;1278;23971;-60
2023/01/09 03:16:04;;;;;;;56.40;28.20;;;;;;;6.21;100.00;97763.27;135652;1278;22569;-59
2023/01/09 03:19:06;;;;;;;54.70;27.40;;;;;;;6.13;100.00;97760.98;135705;1278;22560;-60
2023/01/09 03:22:09;;;;;;;56.50;28.10;;;;;;;6.04;100.00;97763.39;135721;1278;22547;-60
2023/01/09 03:25:12;;;;;;;54.80;27.00;;;;;;;6.11;100.00;97767.88;135703;1278;22536;-60
2023/01/09 03:28:14;;;;;;;59.60;27.80;;;;;;;6.10;100.00;97766.20;135680;1259;22548;-60
2023/01/09 03:31:17;;;;;;;54.00;26.60;;;;;;;6.03;100.00;97771.56;135698;1277;22543;-61
2023/01/09 03:34:19;;;;;;;52.40;26.40;;;;;;;6.01;100.00;97772.08;135685;1278;22541;-60
2023/01/09 03:37:21;;;;;;;58.40;28.20;;;;;;;5.98;100.00;97771.73;135672;1277;22611;-60
2023/01/09 03:40:24;;;;;;;57.10;28.20;;;;;;;5.89;100.00;97763.54;135696;1278;22526;-60
2023/01/09 03:43:26;;;;;;;61.00;30.00;;;;;;;5.86;100.00;97761.45;135665;1259;22536;-60
2023/01/09 03:46:29;;;;;;;59.60;29.80;;;;;;;5.76;100.00;97752.52;135688;1278;23013;-60
2023/01/09 03:49:32;;;;;;;64.30;31.10;;;;;;;5.71;100.00;97754.17;135717;1272;22526;-62
2023/01/09 03:52:35;;;;;;;59.80;29.50;;;;;;;5.66;100.00;97750.80;135684;1278;22602;-60
2023/01/09 03:55:38;;;;;;;63.60;31.10;;;;;;;5.53;100.00;97744.82;135645;1259;22580;-60
2023/01/09 03:58:40;;;;;;;62.10;30.00;;;;;;;5.48;100.00;97730.20;135679;1278;24265;-60
2023/01/09 04:01:42;;;;;;;60.80;30.30;;;;;;;5.42;100.00;97724.13;135708;1278;22569;-62
2023/01/09 04:04:45;;;;;;;63.20;31.30;;;;;;;5.45;100.00;97724.98;135705;1264;22530;-60
2023/01/09 04:07:47;;;;;;;60.20;31.00;;;;;;;5.51;100.00;97728.61;135717;1259;24361;-60
2023/01/09 04:10:50;;;;;;;56.80;29.50;;;;;;;5.45;100.00;97719.09;135712;1278;22531;-64
2023/01/09 04:13:52;;;;;;;;;;;;;;;5.32;100.00;97714.29;135712;1278;22586;-59
2023/01/09 04:16:55;;;;;;;64.20;32.60;;;;;;;5.25;100.00;97704.63;135733;1259;22763;-62
2023/01/09 04:19:58;;;;;;;61.60;29.60;;;;;;;5.27;100.00;97701.42;135705;1278;22529;-62
2023/01/09 04:23:00;;;;;;;56.30;28.10;;;;;;;5.33;100.00;97697.77;135716;1278;24439;-60
2023/01/09 04:26:02;;;;;;;56.00;26.60;;;;;;;5.30;100.00;97704.51;135701;1277;24417;-59
2023/01/09 04:29:05;;;;;;;62.40;30.40;;;;;;;5.31;100.00;97700.61;135655;1278;24238;-62
2023/01/09 04:32:07;;;;;;;62.00;29.20;;;;;;;5.25;100.00;97693.89;135674;1278;24483;-60
2023/01/09 04:35:10;;;;;;;59.60;29.00;;;;;;;5.24;100.00;97690.63;135720;1259;22543;-62
2023/01/09 04:38:12;;;;;;;63.30;30.70;;;;;;;5.21;100.00;97686.98;135701;1259;22542;-61
2023/01/09 04:41:47;;;;;;;57.10;28.80;;;;;;;5.17;100.00;97692.97;135666;1278;22544;-61
2023/01/09 04:44:37;;;;;;;56.10;28.20;;;;;;;5.13;100.00;97683.66;135671;1254;22568;-61
2023/01/09 04:47:39;;;;;;;59.40;29.70;;;;;;;5.10;100.00;97667.16;135682;1278;23951;-60
2023/01/09 04:50:41;;;;;;;58.50;28.40;;;;;;;5.10;100.00;97670.46;135684;1278;22547;-60
2023/01/09 04:53:44;;;;;;;59.00;28.90;;;;;;;4.98;100.00;97671.50;135693;1278;22545;-59
2023/01/09 04:56:46;;;;;;;55.20;28.20;;;;;;;5.06;100.00;97670.55;135637;1278;25419;-59
2023/01/09 04:59:49;;;;;;;57.20;29.00;;;;;;;5.09;100.00;97671.93;135683;1259;24210;-62
2023/01/09 05:02:51;;;;;;;61.50;30.80;;;;;;;5.13;100.00;97671.35;135673;1277;22542;-59
2023/01/09 05:05:53;;;;;;;57.70;30.70;;;;;;;5.14;100.00;97661.58;135668;1278;22639;-59
2023/01/09 05:08:56;;;;;;;61.30;30.00;;;;;;;5.12;100.00;97658.37;135670;1278;22546;-61
2023/01/09 05:11:59;;;;;;;57.40;28.70;;;;;;;5.05;100.00;97668.17;135597;1278;22533;-58
2023/01/09 05:15:02;;;;;;;59.30;28.80;;;;;;;5.05;100.00;97669.19;135677;1264;22594;-59
2023/01/09 05:18:04;;;;;;;57.40;28.90;;;;;;;5.05;100.00;97665.92;135585;1259;22584;-60
2023/01/09 05:21:06;;;;;;;59.00;28.70;;;;;;;4.96;100.00;97667.48;135658;1277;25264;-60
2023/01/09 05:24:09;;;;;;;59.60;30.00;;;;;;;4.90;100.00;97657.37;135666;1278;22508;-61
2023/01/09 05:27:11;;;;;;;58.80;28.90;;;;;;;4.94;100.00;97653.14;135689;1278;22546;-63
2023/01/09 05:30:14;;;;;;;55.50;28.30;;;;;;;4.87;100.00;97646.82;135732;1260;23015;-62
2023/01/09 05:33:16;;;;;;;57.10;29.50;;;;;;;4.84;100.00;97650.95;135726;1278;22555;-62
2023/01/09 05:36:18;;;;;;;56.50;28.70;;;;;;;4.80;100.00;97655.38;135720;1277;22553;-61
2023/01/09 05:39:21;;;;;;;54.50;28.10;;;;;;;4.88;100.00;97654.70;135712;1278;22536;-61
2023/01/09 05:42:23;;;;;;;55.30;29.30;;;;;;;4.96;100.00;97656.16;135690;1278;25345;-61
2023/01/09 05:45:26;;;;;;;60.90;30.10;;;;;;;4.91;100.00;97651.98;135673;1275;22547;-60
2023/01/09 05:48:29;;;;;;;61.10;30.20;;;;;;;4.91;100.00;97649.19;135711;1278;22541;-59
2023/01/09 05:51:31;;;;;;;57.90;29.00;;;;;;;4.92;100.00;97654.34;135708;1278;24388;-61
2023/01/09 05:54:34;;;;;;;;;;;;;;;4.93;100.00;97659.65;135701;1259;22519;-62
2023/01/09 05:57:36;;;;;;;65.00;35.90;;;;;;;4.97;100.00;97656.84;135681;1278;22533;-59
2023/01/09 06:00:38;;;;;;;60.60;31.10;;;;;;;4.98;100.00;97654.38;135694;1278;22533;-60
2023/01/09 06:03:41;;;;;;;58.00;28.50;;;;;;;4.99;100.00;97648.05;135672;1277;22575;-60
2023/01/09 06:06:43;;;;;;;57.20;29.50;;;;;;;5.01;100.00;97647.94;135723;1259;24194;-62
2023/01/09 06:09:46;;;;;;;59.30;29.70;;;;;;;5.10;100.00;97647.11;135693;1259;22559;-62
2023/01/09 06:12:48;;;;;;;57.80;28.80;;;;;;;5.08;100.00;97643.39;135699;1278;22615;-60
2023/01/09 06:15:50;;;;;;;61.10;31.40;;;;;;;5.03;100.00;97640.20;135707;1263;22647;-62
2023/01/09 06:18:53;;;;;;;60.40;30.60;;;;;;;5.02;100.00;97639.92;135680;1264;24212;-63
2023/01/09 06:21:55;;;;;;;52.40;27.50;;;;;;;5.02;100.00;97639.04;135698;1268;22529;-62
2023/01/09 06:24:57;;;;;;;55.40;28.70;;;;;;;4.99;100.00;97634.18;135653;1277;22535;-60
2023/01/09 06:28:00;;;;;;;55.00;29.10;;;;;;;4.94;100.00;97623.71;135679;1278;22501;-60
2023/01/09 06:31:02;;;;;;;55.70;29.70;;;;;;;4.98;100.00;97618.66;135704;1278;22572;-63
2023/01/09 06:34:05;;;;;;;53.70;27.80;;;;;;;5.06;100.00;97618.16;135709;1277;22543;-63
2023/01/09 06:37:07;;;;;;;53.90;27.50;;;;;;;5.12;100.00;97616.83;135684;1277;22991;-64
2023/01/09 06:40:10;;;;;;;55.00;27.60;;;;;;;5.15;100.00;97611.12;135653;1278;22563;-61
2023/01/09 06:43:12;;;;;;;52.50;27.90;;;;;;;5.17;100.00;97607.84;135675;1264;22722;-60
2023/01/09 06:46:14;;;;;;;56.00;29.10;;;;;;;5.08;100.00;97611.47;135684;1278;25479;-62
2023/01/09 06:49:23;;;;;;;56.20;28.60;;;;;;;5.06;100.00;97612.14;135699;1259;24214;-62
2023/01/09 06:52:26;;;;;;;53.70;27.80;;;;;;;5.06;100.00;97607.63;135679;1277;22552;-62
2023/01/09 06:55:28;;;;;;;55.70;30.20;;;;;;;5.19;100.00;97604.98;135687;1259;22516;-59
2023/01/09 06:58:31;;;;;;;;;;;;;;;5.34;100.00;97607.55;135686;1278;22522;-60
2023/01/09 07:01:33;;;;;;;55.20;27.40;;;;;;;5.35;100.00;97610.79;135671;1277;22656;-59
2023/01/09 07:04:35;;;;;;;51.70;27.10;;;;;;;5.37;100.00;97608.92;135717;1267;22556;-61
2023/01/09 07:07:38;;;;;;;52.20;27.30;;;;;;;5.47;100.00;97610.23;135704;1277;24261;-60
2023/01/09 07:10:40;;;;;;;51.30;26.80;;;;;;;5.53;100.00;97608.85;135709;1278;22620;-60
2023/01/09 07:13:43;;;;;;;48.80;25.90;;;;;;;5.57;100.00;97610.52;135715;1277;24256;-62
2023/01/09 07:16:45;;;;;;;47.20;25.70;;;;;;;5.67;100.00;97603.36;135721;1277;24263;-62
2023/01/09 07:19:48;;;;;;;48.40;25.80;;;;;;;5.83;100.00;97600.83;135658;1277;22544;-60
2023/01/09 07:22:50;;;;;;;48.60;25.90;;;;;;;5.90;100.00;97598.98;135676;1277;22543;-60
2023/01/09 07:25:53;;;;;;;48.60;25.30;;;;;;;5.96;100.00;97599.86;135669;1277;22559;-61
2023/01/09 07:28:55;;;;;;;50.30;26.00;;;;;;;5.99;100.00;97600.24;135737;1264;22658;-60
2023/01/09 07:31:57;;;;;;;48.00;25.90;;;;;;;6.02;100.00;97600.88;135714;1278;24242;-59
2023/01/09 07:35:00;;;;;;;53.90;26.70;;;;;;;6.04;100.00;97592.44;135677;1264;22706;-60
2023/01/09 07:38:02;;;;;;;51.80;26.50;;;;;;;6.05;100.00;97590.66;135680;1277;22529;-60
2023/01/09 07:41:05;;;;;;;56.60;28.80;;;;;;;6.06;100.00;97590.91;135720;1259;22538;-61
2023/01/09 07:44:07;;;;;;;56.90;28.60;;;;;;;6.15;100.00;97591.45;135681;1278;22532;-61
2023/01/09 07:47:09;;;;;;;56.80;27.30;;;;;;;6.20;100.00;97589.16;135701;1278;22569;-61
2023/01/09 07:50:12;;;;;;;56.90;28.20;;;;;;;6.28;100.00;97589.03;135699;1278;22685;-60
2023/01/09 07:53:14;;;;;;;;;;;;;;;6.31;100.00;97592.84;135607;1276;22531;-62
2023/01/09 07:56:17;;;;;;;55.60;28.30;;;;;;;6.34;100.00;97589.16;135670;1278;22559;-60
2023/01/09 07:59:19;;;;;;;;;;;;;;;6.38;100.00;97590.48;135634;1278;22525;-59
2023/01/09 08:02:22;;;;;;;55.50;27.80;;;;;;;6.41;100.00;97586.81;135688;1278;22533;-59
2023/01/09 08:05:24;;;;;;;52.70;25.70;;;;;;;6.47;100.00;97582.10;135719;1278;22530;-61
2023/01/09 08:08:27;;;;;;;52.30;25.00;;;;;;;6.53;100.00;97582.05;135684;1278;22641;-61
2023/01/09 08:11:30;;;;;;;48.70;24.10;;;;;;;6.57;100.00;97585.13;135719;1267;22537;-61
2023/01/09 08:14:34;;;;;;;44.40;22.90;;;;;;;6.63;100.00;97576.03;135665;1278;22540;-60
2023/01/09 08:17:37;;;;;;;43.60;23.50;;;;;;;6.75;100.00;97577.91;135721;1277;22523;-59
2023/01/09 08:20:39;;;;;;;44.60;23.50;;;;;;;6.82;100.00;97574.48;135712;1267;24204;-60
2023/01/09 08:23:44;;;;;;;50.60;25.10;;;;;;;6.83;100.00;97576.67;135696;1278;22539;-61
2023/01/09 08:26:46;;;;;;;46.90;24.10;;;;;;;6.77;100.00;97581.08;135708;1260;23041;-62
2023/01/09 08:29:49;;;;;;;49.40;24.00;;;;;;;6.74;100.00;97582.30;135745;1278;22527;-60
2023/01/09 08:32:51;;;;;;;47.20;24.20;;;;;;;6.70;100.00;97584.12;135720;1277;22570;-60
2023/01/09 08:35:54;;;;;;;54.60;28.40;;;;;;;6.71;100.00;97585.77;135714;1264;22582;-61
2023/01/09 08:38:56;;;;;;;;;;;;;;;6.72;100.00;97585.36;135664;1277;22521;-62
2023/01/09 08:48:38;;;;;;;45.10;24.20;;;;;;;6.88;100.00;97574.73;135582;1278;22547;-61
2023/01/09 08:51:41;;;;;;;44.30;23.40;;;;;;;6.97;100.00;97577.19;135741;1261;22541;-59
2023/01/09 08:54:44;;;;;;;;;;;;;;;6.91;100.00;97577.71;135746;1277;22546;-60
2023/01/09 08:57:46;;;;;;;48.30;24.60;;;;;;;6.95;100.00;97576.95;135766;1278;22547;-61
2023/01/09 09:00:48;;;;;;;45.20;24.50;;;;;;;7.07;100.00;97578.73;135707;1268;22758;-60
2023/01/09 09:03:51;;;;;;;47.70;24.40;;;;;;;7.13;100.00;97578.36;135660;1278;22587;-59
2023/01/09 09:06:53;;;;;;;45.70;23.10;;;;;;;7.09;100.00;97578.29;135693;1268;23431;-61
2023/01/09 09:09:56;;;;;;;45.30;22.10;;;;;;;7.13;100.00;97579.73;135757;1278;24236;-62
2023/01/09 09:12:58;;;;;;;45.80;23.10;;;;;;;7.14;100.00;97579.83;135710;1278;22547;-63
2023/01/09 09:16:00;;;;;;;48.50;24.50;;;;;;;7.19;100.00;97578.32;135723;1278;22548;-60
2023/01/09 09:19:03;;;;;;;45.80;24.40;;;;;;;7.18;100.00;97575.58;135717;1277;24268;-61
2023/01/09 09:22:05;;;;;;;46.80;23.70;;;;;;;7.27;100.00;97575.16;135724;1269;22543;-63
2023/01/09 09:25:08;;;;;;;46.80;24.70;;;;;;;7.31;100.00;97573.98;135783;1277;22538;-63
2023/01/09 09:28:10;;;;;;;43.80;22.90;;;;;;;7.41;100.00;97571.27;135742;1277;22636;-62
2023/01/09 09:31:13;;;;;;;49.10;25.20;;;;;;;7.45;100.00;97569.04;135761;1268;22626;-64
2023/01/09 09:34:15;;;;;;;43.40;23.20;;;;;;;7.54;100.00;97564.81;135722;1278;22541;-60
2023/01/09 09:37:17;;;;;;;41.70;22.30;;;;;;;7.62;100.00;97553.83;135726;1278;22550;-60
2023/01/09 09:40:20;;;;;;;47.20;23.90;;;;;;;7.65;100.00;97548.58;135726;1264;22610;-60
2023/01/09 09:46:43;;;;;;;54.00;25.70;;;;;;;7.67;100.00;97523.90;135754;1278;22564;-60
2023/01/09 09:49:45;;;;;;;48.70;24.40;;;;;;;7.79;100.00;97520.96;135705;1278;22644;-61
2023/01/09 09:52:48;;;;;;;47.30;23.70;;;;;;;7.88;100.00;97518.93;135742;1278;22551;-60
2023/01/09 09:55:50;;;;;;;48.10;24.70;;;;;;;7.93;100.00;97509.36;135746;1278;22543;-61
2023/01/09 09:58:53;;;;;;;45.10;23.20;;;;;;;8.03;100.00;97502.43;135773;1277;22561;-61
2023/01/09 10:01:55;;;;;;;45.60;23.70;;;;;;;8.07;100.00;97497.29;135736;1278;24249;-60
2023/01/09 10:04:57;;;;;;;48.40;23.80;;;;;;;8.15;100.00;97494.92;135733;1278;24263;-63
2023/01/09 10:08:00;;;;;;;55.40;27.30;;;;;;;8.20;100.00;97489.52;135725;1278;22536;-63
2023/01/09 10:11:11;;;;;;;44.40;22.40;;;;;;;8.19;100.00;97492.92;135709;1277;22528;-64
2023/01/09 10:14:13;;;;;;;42.80;21.90;;;;;;;8.20;100.00;97489.17;135723;1278;22546;-62
2023/01/09 10:17:16;;;;;;;42.60;21.20;;;;;;;8.22;100.00;97487.31;135732;1268;22522;-62
2023/01/09 10:20:18;;;;;;;;;;;;;;;8.23;100.00;97485.64;135767;1278;22518;-62
2023/01/09 10:23:21;;;;;;;41.30;20.90;;;;;;;8.31;100.00;97485.95;131668;1278;5363142;-60
2023/01/09 10:26:23;;;;;;;44.50;21.80;;;;;;;8.33;100.00;97477.29;135739;1278;22559;-60
2023/01/09 10:29:25;;;;;;;45.20;23.60;;;;;;;8.37;100.00;97478.86;135748;1277;22530;-64
2023/01/09 10:32:28;;;;;;;42.40;22.30;;;;;;;8.37;100.00;97476.42;135699;1278;22571;-62
2023/01/09 10:35:30;;;;;;;42.80;21.80;;;;;;;8.28;100.00;97467.84;135749;1278;24411;-62
2023/01/09 10:38:33;;;;;;;41.20;21.20;;;;;;;8.32;100.00;97469.11;135759;1278;22621;-61
2023/01/09 10:41:35;;;;;;;43.20;22.00;;;;;;;8.39;100.00;97469.53;135735;1261;22547;-61
2023/01/09 10:44:38;;;;;;;41.40;22.10;;;;;;;8.44;100.00;97465.52;135778;1277;24238;-61
2023/01/09 10:47:41;;;;;;;40.10;20.40;;;;;;;8.41;100.00;97458.73;135734;1278;24227;-60
2023/01/09 10:50:44;;;;;;;42.80;21.40;;;;;;;8.36;100.00;97462.96;135759;1277;22539;-60
2023/01/09 10:53:47;;;;;;;;;;;;;;;8.44;100.00;97464.48;135748;1278;22492;-61
2023/01/09 10:56:49;;;;;;;42.50;21.50;;;;;;;8.59;100.00;97463.73;135751;1278;22546;-60
2023/01/09 10:59:51;;;;;;;44.20;21.00;;;;;;;8.53;100.00;97466.55;135741;1277;22563;-60
2023/01/09 11:02:54;;;;;;;44.30;21.60;;;;;;;8.60;100.00;97463.31;135735;1261;22528;-60
2023/01/09 11:05:57;;;;;;;43.40;21.50;;;;;;;8.65;100.00;97461.53;135755;1261;22541;-63
2023/01/09 11:08:59;;;;;;;42.70;21.60;;;;;;;8.68;100.00;97467.04;135772;1273;22529;-62
2023/01/09 11:12:02;;;;;;;38.40;19.90;;;;;;;8.69;100.00;97468.71;135740;1278;22540;-60
2023/01/09 11:15:04;;;;;;;47.40;22.10;;;;;;;8.77;100.00;97468.67;135785;1278;25325;-60
2023/01/09 11:18:07;;;;;;;45.60;22.50;;;;;;;8.88;100.00;97460.86;135743;1278;22546;-62
2023/01/09 11:21:09;;;;;;;47.20;22.80;;;;;;;8.90;100.00;97462.81;135741;1277;22559;-64
2023/01/09 11:24:11;;;;;;;40.30;20.40;;;;;;;8.93;100.00;97461.88;135741;1277;24225;-60
2023/01/09 11:27:14;;;;;;;43.80;22.40;;;;;;;8.89;100.00;97460.11;135787;1261;22584;-60
2023/01/09 11:30:18;;;;;;;45.00;22.40;;;;;;;8.90;100.00;97462.28;135777;1263;22534;-61
2023/01/09 11:33:21;;;;;;;40.60;21.90;;;;;;;9.02;100.00;97464.31;135787;1278;22551;-60
2023/01/09 11:36:23;;;;;;;41.10;21.20;;;;;;;9.05;100.00;97459.95;135755;1278;22559;-60
2023/01/09 11:39:26;;;;;;;39.30;20.40;;;;;;;9.09;100.00;97450.42;135755;1277;22604;-60
2023/01/09 11:45:45;;;;;;;41.90;21.60;;;;;;;9.23;100.00;97444.09;135720;1265;24218;-60
2023/01/09 11:48:47;;;;;;;41.40;22.00;;;;;;;9.14;100.00;97441.23;135733;1278;22530;-60
2023/01/09 11:51:50;;;;;;;44.20;23.40;;;;;;;9.12;100.00;97446.69;135735;1278;24259;-61
2023/01/09 11:54:52;;;;;;;39.70;20.50;;;;;;;9.11;100.00;97448.30;135725;1268;22545;-60
2023/01/09 11:57:55;;;;;;;36.30;18.60;;;;;;;9.13;100.00;97448.49;135764;1278;22540;-61
2023/01/09 12:00:57;;;;;;;38.40;18.20;;;;;;;9.14;100.00;97449.50;135741;1278;22552;-63
2023/01/09 12:04:00;;;;;;;39.60;19.30;;;;;;;9.15;100.00;97448.55;135727;1278;22553;-60
2023/01/09 12:07:02;;;;;;;41.70;20.10;;;;;;;9.13;100.00;97443.65;135714;1278;22536;-60
2023/01/09 12:10:05;;;;;;;41.40;20.70;;;;;;;9.13;100.00;97448.28;135701;1277;22540;-61
2023/01/09 12:13:07;;;;;;;42.30;21.30;;;;;;;9.12;100.00;97448.73;135701;1278;24273;-58
2023/01/09 12:16:09;;;;;;;43.40;20.70;;;;;;;9.12;100.00;97445.10;135677;1277;22554;-58
2023/01/09 12:19:12;;;;;;;39.10;18.70;;;;;;;9.12;100.00;97442.30;135624;1277;22539;-62
2023/01/09 12:22:14;;;;;;;39.20;20.30;;;;;;;9.16;100.00;97442.33;135760;1274;22538;-60
2023/01/09 12:25:17;;;;;;;38.00;20.10;;;;;;;9.25;100.00;97437.84;135777;1278;24209;-63
2023/01/09 12:28:19;;;;;;;37.70;19.00;;;;;;;9.40;100.00;97437.89;135760;1254;22530;-61
2023/01/09 12:31:22;;;;;;;43.20;20.30;;;;;;;9.45;100.00;97438.53;135771;1260;22543;-60
2023/01/09 12:34:24;;;;;;;36.60;18.70;;;;;;;9.40;100.00;97436.17;135749;1267;22564;-60
2023/01/09 12:37:27;;;;;;;;;;;;;;;9.37;100.00;97432.56;135754;1257;25584;-61
2023/01/09 12:40:29;;;;;;;37.80;18.90;;;;;;;9.35;100.00;97433.56;135787;1277;22551;-63
2023/01/09 12:43:32;;;;;;;37.50;18.30;;;;;;;9.40;100.00;97426.92;135753;1260;25443;-60
2023/01/09 12:46:34;;;;;;;41.20;21.40;;;;;;;9.45;100.00;97427.36;135738;1277;22562;-61
2023/01/09 12:49:37;;;;;;;;;;;;;;;9.45;100.00;97421.80;135759;1277;22518;-61
2023/01/09 12:52:39;;;;;;;43.30;22.80;;;;;;;9.47;100.00;97427.41;135708;1277;22540;-60
2023/01/09 12:55:42;;;;;;;35.50;17.60;;;;;;;9.39;100.00;97428.84;135731;1278;22543;-60
2023/01/09 12:58:44;;;;;;;35.40;17.50;;;;;;;9.30;100.00;97428.86;135756;1264;24235;-61
2023/01/09 13:01:47;;;;;;;;;;;;;;;9.25;100.00;97425.98;135766;1254;22651;-60
2023/01/09 13:04:49;;;;;;;36.80;17.30;;;;;;;9.22;100.00;97420.73;135743;1259;22536;-61
2023/01/09 13:07:51;;;;;;;37.60;17.90;;;;;;;9.29;100.00;97418.98;135761;1278;22542;-60
2023/01/09 13:10:54;;;;;;;43.80;22.40;;;;;;;9.23;100.00;97420.67;135692;1277;23300;-62
2023/01/09 13:13:56;;;;;;;38.20;19.00;;;;;;;9.29;100.00;97421.64;135798;1278;22538;-60
2023/01/09 13:16:59;;;;;;;41.40;21.00;;;;;;;9.24;100.00;97417.14;135773;1277;22543;-61
2023/01/09 13:20:01;;;;;;;42.30;20.00;;;;;;;9.22;100.00;97412.95;135749;1277;22541;-60
2023/01/09 13:23:03;;;;;;;37.00;18.70;;;;;;;9.22;100.00;97408.40;135753;1277;22529;-61
2023/01/09 13:26:06;;;;;;;41.40;18.20;;;;;;;9.24;100.00;97408.25;135714;1277;22542;-61
2023/01/09 13:29:09;;;;;;;38.40;18.30;;;;;;;9.24;100.00;97406.88;135772;1277;22546;-62
2023/01/09 13:32:11;;;;;;;41.00;22.00;;;;;;;9.23;100.00;97408.66;135755;1277;22535;-62
2023/01/09 13:35:14;;;;;;;38.40;19.20;;;;;;;9.19;100.00;97411.39;135742;1278;22537;-61
2023/01/09 13:38:16;;;;;;;39.80;20.10;;;;;;;9.20;100.00;97410.78;135760;1277;25495;-60
2023/01/09 13:44:38;;;;;;;39.20;20.30;;;;;;;9.15;100.00;97416.11;135735;1278;22552;-60
2023/01/09 13:47:41;;;;;;;36.90;19.20;;;;;;;9.09;100.00;97423.15;135732;1278;22723;-60
2023/01/09 13:50:43;;;;;;;43.70;22.40;;;;;;;9.10;100.00;97426.05;135762;1277;22548;-61
2023/01/09 13:53:46;;;;;;;;;;;;;;;9.11;100.00;97428.27;135703;1277;22521;-59
2023/01/09 13:56:49;;;;;;;55.10;25.40;;;;;;;9.18;100.00;97435.74;135735;1278;22550;-62
2023/01/09 13:59:51;;;;;;;;;;;;;;;9.26;100.00;97434.94;135772;1278;22595;-61
2023/01/09 14:02:54;;;;;;;50.60;23.80;;;;;;;9.27;100.00;97439.39;135684;1277;22549;-61
2023/01/09 14:05:56;;;;;;;78.70;32.70;;;;;;;9.22;100.00;97445.16;135701;1278;24385;-60
2023/01/09 14:08:59;;;;;;;137.90;51.60;;;;;;;9.27;100.00;97453.23;135755;1254;24236;-61
2023/01/09 14:12:01;;;;;;;88.60;36.40;;;;;;;9.28;100.00;97455.73;135772;1277;22634;-60
2023/01/09 14:15:04;;;;;;;47.50;21.00;;;;;;;9.22;100.00;97459.15;135728;1278;22533;-62